createdAt,value
2018-12-17T00:00:07.906Z,1.10
2018-12-17T00:02:09.424Z,1.14
2018-12-17T00:04:10.724Z,1.18
2018-12-17T00:06:12.180Z,1.14
2018-12-17T00:08:13.587Z,1.13
2018-12-17T00:10:15.012Z,1.21
2018-12-17T00:12:16.799Z,1.20
2018-12-17T00:14:18.350Z,1.23
2018-12-17T00:16:19.898Z,1.18
2018-12-17T00:18:21.300Z,1.17
2018-12-17T00:20:22.759Z,1.18
2018-12-17T00:22:24.194Z,1.23
2018-12-17T00:24:25.612Z,1.19
2018-12-17T00:26:27.342Z,1.18
2018-12-17T00:28:28.687Z,1.27
2018-12-17T00:30:30.072Z,1.24
2018-12-17T00:32:31.492Z,1.21
2018-12-17T00:34:32.914Z,1.13
2018-12-17T00:36:34.352Z,1.12
2018-12-17T00:38:35.758Z,1.16
2018-12-17T00:40:37.159Z,1.16
2018-12-17T00:42:38.591Z,1.12
2018-12-17T00:44:40.133Z,1.22
2018-12-17T00:46:41.645Z,1.22
2018-12-17T00:48:43.163Z,1.28
2018-12-17T00:50:44.634Z,1.24
2018-12-17T00:52:46.069Z,1.25
2018-12-17T00:54:47.463Z,1.21
2018-12-17T00:56:48.874Z,1.18
2018-12-17T00:58:50.595Z,1.10
2018-12-17T01:00:52.019Z,1.07
2018-12-17T01:02:53.421Z,1.06
2018-12-17T01:04:54.895Z,1.09
2018-12-17T01:06:56.366Z,1.12
2018-12-17T01:08:57.770Z,1.13
2018-12-17T01:10:59.321Z,1.14
2018-12-17T01:13:01.020Z,1.13
2018-12-17T01:15:03.773Z,1.13
2018-12-17T01:17:05.112Z,1.04
2018-12-17T01:19:06.569Z,1.02
2018-12-17T01:21:08.176Z,1.03
2018-12-17T01:23:09.557Z,1.06
2018-12-17T01:25:10.947Z,1.20
2018-12-17T01:27:12.494Z,1.10
2018-12-17T01:29:13.921Z,1.07
2018-12-17T01:31:15.338Z,0.98
2018-12-17T01:33:16.712Z,1.25
2018-12-17T01:35:18.548Z,1.29
2018-12-17T01:37:20.083Z,1.13
2018-12-17T01:39:21.466Z,1.13
2018-12-17T01:41:23.389Z,1.03
2018-12-17T01:43:24.865Z,1.04
2018-12-17T01:45:26.302Z,0.98
2018-12-17T01:47:27.986Z,1.07
2018-12-17T01:49:29.456Z,0.97
2018-12-17T01:51:30.850Z,0.96
2018-12-17T01:53:32.292Z,0.84
2018-12-17T01:55:33.706Z,0.92
2018-12-17T01:57:35.549Z,0.92
2018-12-17T01:59:36.968Z,0.93
2018-12-17T02:01:38.822Z,1.10
2018-12-17T02:03:40.239Z,1.03
2018-12-17T02:05:41.870Z,0.94
2018-12-17T02:07:43.265Z,1.14
2018-12-17T02:09:44.944Z,1.03
2018-12-17T02:11:46.317Z,0.97
2018-12-17T02:13:55.157Z,1.01
2018-12-17T02:15:56.713Z,1.06
2018-12-17T02:17:58.238Z,0.97
2018-12-17T02:19:59.661Z,0.95
2018-12-17T02:22:01.178Z,0.93
2018-12-17T02:24:02.803Z,0.96
2018-12-17T02:26:04.470Z,1.03
2018-12-17T02:28:05.903Z,1.01
2018-12-17T02:30:07.472Z,0.98
2018-12-17T02:32:08.900Z,0.98
2018-12-17T02:34:10.433Z,0.95
2018-12-17T02:36:11.885Z,0.93
2018-12-17T02:38:13.531Z,0.93
2018-12-17T02:40:14.950Z,0.92
2018-12-17T02:42:16.349Z,0.92
2018-12-17T02:44:18.165Z,0.96
2018-12-17T02:46:19.573Z,0.97
2018-12-17T02:48:20.956Z,0.96
2018-12-17T02:50:22.394Z,1.00
2018-12-17T02:52:23.864Z,1.03
2018-12-17T02:54:25.278Z,1.06
2018-12-17T02:56:26.781Z,1.04
2018-12-17T02:58:28.581Z,1.07
2018-12-17T03:00:30.167Z,1.04
2018-12-17T03:02:31.688Z,1.13
2018-12-17T03:04:33.234Z,1.11
2018-12-17T03:06:34.633Z,1.13
2018-12-17T03:08:36.048Z,1.07
2018-12-17T03:10:37.621Z,1.13
2018-12-17T03:12:39.050Z,1.20
2018-12-17T03:14:40.492Z,1.13
2018-12-17T03:16:41.962Z,1.13
2018-12-17T03:18:43.401Z,0.98
2018-12-17T03:20:44.820Z,1.13
2018-12-17T03:22:46.202Z,1.13
2018-12-17T03:24:47.643Z,1.05
2018-12-17T03:26:49.167Z,1.10
2018-12-17T03:28:51.984Z,1.03
2018-12-17T03:30:53.834Z,1.07
2018-12-17T03:32:55.324Z,1.11
2018-12-17T03:34:56.783Z,1.10
2018-12-17T03:36:58.215Z,1.13
2018-12-17T03:38:59.616Z,1.04
2018-12-17T03:41:01.410Z,1.03
2018-12-17T03:43:02.859Z,1.10
2018-12-17T03:45:04.425Z,1.15
2018-12-17T03:47:05.864Z,1.08
2018-12-17T03:49:07.505Z,1.06
2018-12-17T03:51:09.098Z,0.99
2018-12-17T03:53:10.573Z,0.98
2018-12-17T03:55:12.115Z,1.05
2018-12-17T03:57:13.605Z,1.21
2018-12-17T03:59:14.999Z,1.19
2018-12-17T04:01:16.437Z,1.09
2018-12-17T04:03:17.875Z,1.12
2018-12-17T04:05:19.311Z,1.04
2018-12-17T04:07:20.773Z,1.21
2018-12-17T04:09:22.158Z,1.21
2018-12-17T04:11:23.836Z,1.05
2018-12-17T04:13:25.258Z,1.06
2018-12-17T04:15:27.001Z,1.16
2018-12-17T04:17:28.337Z,1.13
2018-12-17T04:19:29.746Z,0.98
2018-12-17T04:21:31.072Z,0.98
2018-12-17T04:23:32.738Z,1.03
2018-12-17T04:25:34.164Z,1.04
2018-12-17T04:27:35.604Z,1.05
2018-12-17T04:29:37.040Z,1.04
2018-12-17T04:31:38.486Z,0.90
2018-12-17T04:33:40.023Z,1.05
2018-12-17T04:35:41.473Z,0.89
2018-12-17T04:37:42.968Z,1.12
2018-12-17T04:39:44.394Z,1.04
2018-12-17T04:41:45.807Z,1.06
2018-12-17T04:43:47.189Z,1.10
2018-12-17T04:45:48.584Z,0.98
2018-12-17T04:47:50.028Z,1.10
2018-12-17T04:49:51.457Z,1.05
2018-12-17T04:51:52.872Z,1.07
2018-12-17T04:53:54.324Z,1.02
2018-12-17T04:55:55.935Z,1.02
2018-12-17T04:57:57.863Z,1.12
2018-12-17T04:59:59.305Z,1.08
2018-12-17T05:02:00.748Z,1.06
2018-12-17T05:04:02.124Z,1.07
2018-12-17T05:06:03.669Z,0.97
2018-12-17T05:08:05.082Z,0.95
2018-12-17T05:10:06.742Z,1.02
2018-12-17T05:12:08.153Z,0.99
2018-12-17T05:14:09.566Z,1.04
2018-12-17T05:16:11.235Z,1.05
2018-12-17T05:18:12.636Z,1.07
2018-12-17T05:20:14.307Z,1.13
2018-12-17T05:22:22.751Z,1.06
2018-12-17T05:24:30.819Z,1.19
2018-12-17T05:26:38.694Z,1.37
2018-12-17T05:28:43.287Z,1.26
2018-12-17T05:30:44.627Z,1.33
2018-12-17T05:32:52.651Z,1.19
2018-12-17T05:35:00.407Z,1.32
2018-12-17T05:37:08.031Z,1.28
2018-12-17T05:39:16.073Z,1.55
2018-12-17T05:41:20.983Z,1.32
2018-12-17T05:43:25.955Z,1.21
2018-12-17T05:45:33.929Z,1.13
2018-12-17T05:47:39.061Z,1.14
2018-12-17T05:49:44.305Z,1.16
2018-12-17T05:51:55.982Z,1.27
2018-12-17T05:54:03.960Z,1.21
2018-12-17T05:56:11.746Z,1.13
2018-12-17T05:58:19.674Z,1.15
2018-12-17T06:00:27.664Z,1.41
2018-12-17T06:02:35.441Z,1.35
2018-12-17T06:04:40.513Z,1.52
2018-12-17T06:06:48.119Z,1.46
2018-12-17T06:08:52.877Z,1.47
2018-12-17T06:10:57.671Z,1.43
2018-12-17T06:13:05.418Z,1.30
2018-12-17T06:15:16.927Z,1.39
2018-12-17T06:17:24.802Z,1.24
2018-12-17T06:19:30.116Z,1.34
2018-12-17T06:21:35.181Z,1.33
2018-12-17T06:23:43.093Z,1.28
2018-12-17T06:25:50.865Z,1.28
2018-12-17T06:27:58.745Z,1.30
2018-12-17T06:30:06.766Z,1.21
2018-12-17T06:32:11.661Z,1.25
2018-12-17T06:34:23.543Z,1.31
2018-12-17T06:36:28.126Z,1.38
2018-12-17T06:38:35.929Z,1.35
2018-12-17T06:40:39.281Z,1.31
2018-12-17T06:42:44.098Z,1.44
2018-12-17T06:44:51.943Z,1.87
2018-12-17T06:46:56.969Z,1.62
2018-12-17T06:49:01.697Z,1.63
2018-12-17T06:51:09.624Z,1.67
2018-12-17T06:53:14.436Z,1.22
2018-12-17T06:55:22.042Z,1.36
2018-12-17T06:57:27.242Z,1.53
2018-12-17T06:59:35.161Z,1.44
2018-12-17T07:01:40.158Z,1.44
2018-12-17T07:03:44.912Z,1.39
2018-12-17T07:05:52.728Z,1.34
2018-12-17T07:08:00.670Z,1.32
2018-12-17T07:10:09.305Z,1.29
2018-12-17T07:12:17.327Z,1.29
2018-12-17T07:14:25.372Z,1.29
2018-12-17T07:16:33.348Z,1.30
2018-12-17T07:18:41.554Z,1.38
2018-12-17T07:20:49.458Z,1.28
2018-12-17T07:22:54.205Z,1.44
2018-12-17T07:25:06.126Z,1.47
2018-12-17T07:27:13.538Z,1.63
2018-12-17T07:29:18.643Z,1.74
2018-12-17T07:31:26.478Z,1.89
2018-12-17T07:33:34.470Z,1.83
2018-12-17T07:35:42.285Z,1.68
2018-12-17T07:37:54.110Z,1.60
2018-12-17T07:39:59.114Z,1.41
2018-12-17T07:42:03.760Z,1.50
2018-12-17T07:44:11.422Z,1.62
2018-12-17T07:46:23.134Z,1.66
2018-12-17T07:48:28.048Z,1.59
2018-12-17T07:50:40.612Z,1.59
2018-12-17T07:52:48.463Z,1.57
2018-12-17T07:54:56.306Z,1.59
2018-12-17T07:57:04.450Z,1.73
2018-12-17T07:59:16.081Z,1.68
2018-12-17T08:01:27.832Z,1.65
2018-12-17T08:03:35.653Z,1.71
2018-12-17T08:05:43.258Z,1.73
2018-12-17T08:07:54.916Z,1.72
2018-12-17T08:09:59.539Z,1.72
2018-12-17T08:12:07.175Z,1.72
2018-12-17T08:14:14.979Z,1.78
2018-12-17T08:16:22.783Z,1.87
2018-12-17T08:18:30.598Z,1.83
2018-12-17T08:20:33.622Z,1.95
2018-12-17T08:22:38.571Z,1.82
2018-12-17T08:24:47.137Z,1.89
2018-12-17T08:26:50.042Z,1.93
2018-12-17T08:28:57.791Z,2.09
2018-12-17T08:31:06.094Z,2.22
2018-12-17T08:33:10.773Z,2.13
2018-12-17T08:35:15.237Z,2.06
2018-12-17T08:37:20.422Z,2.13
2018-12-17T08:39:23.505Z,2.28
2018-12-17T08:41:31.049Z,2.06
2018-12-17T08:43:39.030Z,2.16
2018-12-17T08:45:51.089Z,2.03
2018-12-17T08:48:03.398Z,2.22
2018-12-17T08:50:08.728Z,2.22
2018-12-17T08:52:16.317Z,2.24
2018-12-17T08:54:28.257Z,2.32
2018-12-17T08:56:33.043Z,2.44
2018-12-17T08:58:40.842Z,2.33
2018-12-17T09:00:48.814Z,2.31
2018-12-17T09:03:00.785Z,2.45
2018-12-17T09:05:12.803Z,2.45
2018-12-17T09:07:17.339Z,2.68
2018-12-17T09:09:25.836Z,2.53
2018-12-17T09:11:30.766Z,2.72
2018-12-17T09:13:35.828Z,2.96
2018-12-17T09:15:40.645Z,2.80
2018-12-17T09:17:52.373Z,2.72
2018-12-17T09:20:00.557Z,2.87
2018-12-17T09:22:08.351Z,2.87
2018-12-17T09:24:13.361Z,2.77
2018-12-17T09:26:21.592Z,2.75
2018-12-17T09:28:29.213Z,2.63
2018-12-17T09:30:41.352Z,2.83
2018-12-17T09:32:47.197Z,2.85
2018-12-17T09:34:54.901Z,2.81
2018-12-17T09:37:02.835Z,2.89
2018-12-17T09:39:10.773Z,3.02
2018-12-17T09:41:18.439Z,2.86
2018-12-17T09:43:26.175Z,2.79
2018-12-17T09:45:33.966Z,2.74
2018-12-17T09:47:42.041Z,2.74
2018-12-17T09:49:47.017Z,2.94
2018-12-17T09:51:54.717Z,3.02
2018-12-17T09:53:59.886Z,3.10
2018-12-17T09:56:07.685Z,3.05
2018-12-17T09:58:12.568Z,3.25
2018-12-17T10:00:25.377Z,3.23
2018-12-17T10:02:30.314Z,3.25
2018-12-17T10:04:38.258Z,3.39
2018-12-17T10:06:42.994Z,3.41
2018-12-17T10:08:50.779Z,3.36
2018-12-17T10:10:58.569Z,3.42
2018-12-17T10:13:06.553Z,3.31
2018-12-17T10:15:14.192Z,3.33
2018-12-17T10:17:21.812Z,3.26
2018-12-17T10:19:29.637Z,3.03
2018-12-17T10:21:37.646Z,3.30
2018-12-17T10:23:46.000Z,3.39
2018-12-17T10:25:50.531Z,3.34
2018-12-17T10:27:57.874Z,3.42
2018-12-17T10:30:05.950Z,3.43
2018-12-17T10:32:14.602Z,3.42
2018-12-17T10:34:22.472Z,3.64
2018-12-17T10:36:30.520Z,3.76
2018-12-17T10:38:39.113Z,3.83
2018-12-17T10:40:46.805Z,3.74
2018-12-17T10:42:54.873Z,3.68
2018-12-17T10:45:03.209Z,3.71
2018-12-17T10:47:11.251Z,3.99
2018-12-17T10:49:19.081Z,4.09
2018-12-17T10:51:26.829Z,3.89
2018-12-17T10:53:34.811Z,3.80
2018-12-17T10:55:42.746Z,3.72
2018-12-17T10:57:57.775Z,3.88
2018-12-17T11:00:07.425Z,4.14
2018-12-17T11:02:14.210Z,4.05
2018-12-17T11:04:24.036Z,4.31
2018-12-17T11:06:31.971Z,4.23
2018-12-17T11:08:40.796Z,4.19
2018-12-17T11:10:48.417Z,4.13
2018-12-17T11:13:00.385Z,4.27
2018-12-17T11:15:08.335Z,4.48
2018-12-17T11:17:12.773Z,4.36
2018-12-17T11:19:20.349Z,4.22
2018-12-17T11:21:28.397Z,4.30
2018-12-17T11:23:36.194Z,4.35
2018-12-17T11:25:43.824Z,4.28
2018-12-17T11:27:51.708Z,4.23
2018-12-17T11:29:59.611Z,4.36
2018-12-17T11:32:11.552Z,4.27
2018-12-17T11:34:14.973Z,4.16
2018-12-17T11:36:22.629Z,4.14
2018-12-17T11:38:30.686Z,4.07
2018-12-17T11:40:38.398Z,4.36
2018-12-17T11:42:46.186Z,4.15
2018-12-17T11:44:53.921Z,4.13
2018-12-17T11:47:02.051Z,4.21
2018-12-17T11:49:09.658Z,4.39
2018-12-17T11:51:11.125Z,4.32
2018-12-17T11:53:12.528Z,4.33
2018-12-17T11:55:14.894Z,4.26
2018-12-17T11:57:36.554Z,4.40
2018-12-17T11:59:43.959Z,4.35
2018-12-17T12:01:51.963Z,4.27
2018-12-17T12:03:59.952Z,4.21
2018-12-17T12:06:14.132Z,4.21
2018-12-17T12:08:21.805Z,4.38
2018-12-17T12:10:29.344Z,4.35
2018-12-17T12:12:37.162Z,4.11
2018-12-17T12:14:42.133Z,4.26
2018-12-17T12:16:50.709Z,4.24
2018-12-17T12:18:58.669Z,4.41
2018-12-17T12:21:03.224Z,4.53
2018-12-17T12:23:11.241Z,4.50
2018-12-17T12:25:16.272Z,4.50
2018-12-17T12:27:23.760Z,4.48
2018-12-17T12:29:28.489Z,4.40
2018-12-17T12:31:33.154Z,4.40
2018-12-17T12:33:40.688Z,4.41
2018-12-17T12:35:48.412Z,4.73
2018-12-17T12:37:59.973Z,4.67
2018-12-17T12:40:07.386Z,4.82
2018-12-17T12:42:12.278Z,4.90
2018-12-17T12:44:20.130Z,5.14
2018-12-17T12:46:27.544Z,5.14
2018-12-17T12:48:35.450Z,5.16
2018-12-17T12:50:43.394Z,5.43
2018-12-17T12:52:51.023Z,4.94
2018-12-17T12:54:58.717Z,5.25
2018-12-17T12:57:06.287Z,4.95
2018-12-17T12:59:14.219Z,5.15
2018-12-17T13:01:21.978Z,5.20
2018-12-17T13:03:26.951Z,5.20
2018-12-17T13:05:34.745Z,5.07
2018-12-17T13:07:42.709Z,5.23
2018-12-17T13:09:50.323Z,4.98
2018-12-17T13:11:58.162Z,5.00
2018-12-17T13:14:03.405Z,4.78
2018-12-17T13:16:11.158Z,5.19
2018-12-17T13:18:18.858Z,5.30
2018-12-17T13:20:26.590Z,5.33
2018-12-17T13:22:31.177Z,5.26
2018-12-17T13:24:43.022Z,5.39
2018-12-17T13:26:47.873Z,5.55
2018-12-17T13:28:55.650Z,5.45
2018-12-17T13:31:03.636Z,5.41
2018-12-17T13:33:08.701Z,5.29
2018-12-17T13:35:20.617Z,5.37
2018-12-17T13:37:28.353Z,5.26
2018-12-17T13:39:36.448Z,5.30
2018-12-17T13:41:48.346Z,5.28
2018-12-17T13:43:56.244Z,5.30
2018-12-17T13:46:04.233Z,5.65
2018-12-17T13:48:16.073Z,5.37
2018-12-17T13:50:30.473Z,5.51
2018-12-17T13:52:44.850Z,5.48
2018-12-17T13:54:52.529Z,5.30
2018-12-17T13:57:00.484Z,5.33
2018-12-17T13:59:08.281Z,5.28
2018-12-17T14:01:21.808Z,5.36
2018-12-17T14:03:33.269Z,5.42
2018-12-17T14:05:40.865Z,5.28
2018-12-17T14:07:50.715Z,5.61
2018-12-17T14:10:04.082Z,5.19
2018-12-17T14:12:11.910Z,5.25
2018-12-17T14:14:19.868Z,5.17
2018-12-17T14:16:33.719Z,5.24
2018-12-17T14:18:47.648Z,5.30
2018-12-17T14:21:01.686Z,5.25
2018-12-17T14:23:06.466Z,5.21
2018-12-17T14:25:11.294Z,5.18
2018-12-17T14:27:22.972Z,5.20
2018-12-17T14:29:30.782Z,5.14
2018-12-17T14:31:38.546Z,5.10
2018-12-17T14:33:43.114Z,4.77
2018-12-17T14:36:09.546Z,4.85
2018-12-17T14:38:17.226Z,4.80
2018-12-17T14:40:24.796Z,4.73
2018-12-17T14:42:32.381Z,4.69
2018-12-17T14:44:37.233Z,4.56
2018-12-17T14:46:50.892Z,4.53
2018-12-17T14:48:58.501Z,4.52
2018-12-17T14:51:06.502Z,4.42
2018-12-17T14:53:11.634Z,4.41
2018-12-17T14:55:23.212Z,4.41
2018-12-17T14:57:30.742Z,4.40
2018-12-17T14:59:38.537Z,4.17
2018-12-17T15:01:46.345Z,4.19
2018-12-17T15:03:55.040Z,4.20
2018-12-17T15:06:02.985Z,4.20
2018-12-17T15:08:10.921Z,4.14
2018-12-17T15:10:18.697Z,4.08
2018-12-17T15:12:26.557Z,4.13
2018-12-17T15:14:34.281Z,4.10
2018-12-17T15:16:42.194Z,4.09
2018-12-17T15:18:54.055Z,4.10
2018-12-17T15:21:01.562Z,4.24
2018-12-17T15:23:09.645Z,4.17
2018-12-17T15:25:14.607Z,4.10
2018-12-17T15:27:23.036Z,4.08
2018-12-17T15:29:34.623Z,4.05
2018-12-17T15:31:43.142Z,4.14
2018-12-17T15:33:50.975Z,4.05
2018-12-17T15:35:58.896Z,3.92
2018-12-17T15:38:07.182Z,3.87
2018-12-17T15:40:14.940Z,3.84
2018-12-17T15:42:19.956Z,3.82
2018-12-17T15:44:28.992Z,3.83
2018-12-17T15:46:36.609Z,3.81
2018-12-17T15:48:44.564Z,3.77
2018-12-17T15:50:49.436Z,3.73
2018-12-17T15:52:57.161Z,3.71
2018-12-17T15:55:11.994Z,3.73
2018-12-17T15:57:20.157Z,3.71
2018-12-17T15:59:28.148Z,3.72
2018-12-17T16:01:33.298Z,3.75
2018-12-17T16:03:41.097Z,3.75
2018-12-17T16:05:48.918Z,3.73
2018-12-17T16:07:56.886Z,3.71
2018-12-17T16:09:59.782Z,3.72
2018-12-17T16:12:05.670Z,3.71
2018-12-17T16:14:10.639Z,3.50
2018-12-17T16:16:14.084Z,3.99
2018-12-17T16:18:28.893Z,4.00
2018-12-17T16:20:32.256Z,4.25
2018-12-17T16:22:39.694Z,4.04
2018-12-17T16:24:44.435Z,3.79
2018-12-17T16:26:52.356Z,3.75
2018-12-17T16:29:00.808Z,3.71
2018-12-17T16:31:08.477Z,3.69
2018-12-17T16:33:17.187Z,3.71
2018-12-17T16:35:22.364Z,3.67
2018-12-17T16:37:29.847Z,3.68
2018-12-17T16:39:37.754Z,3.65
2018-12-17T16:41:42.621Z,3.68
2018-12-17T16:43:50.179Z,3.65
2018-12-17T16:45:55.114Z,3.70
2018-12-17T16:48:02.671Z,3.68
2018-12-17T16:50:10.343Z,3.63
2018-12-17T16:52:15.477Z,3.62
2018-12-17T16:54:27.239Z,4.03
2018-12-17T16:56:38.749Z,4.06
2018-12-17T16:58:43.512Z,3.77
2018-12-17T17:00:48.039Z,3.94
2018-12-17T17:02:51.011Z,3.84
2018-12-17T17:05:04.986Z,3.74
2018-12-17T17:07:15.318Z,3.68
2018-12-17T17:09:23.748Z,3.66
2018-12-17T17:11:33.559Z,3.62
2018-12-17T17:13:41.263Z,3.60
2018-12-17T17:15:49.203Z,3.69
2018-12-17T17:17:52.371Z,3.69
2018-12-17T17:20:00.110Z,3.65
2018-12-17T17:22:26.182Z,3.72
2018-12-17T17:24:31.045Z,4.14
2018-12-17T17:26:35.725Z,4.24
2018-12-17T17:28:44.263Z,4.12
2018-12-17T17:30:49.413Z,3.77
2018-12-17T17:32:54.859Z,3.69
2018-12-17T17:35:04.450Z,3.61
2018-12-17T17:37:12.761Z,3.76
2018-12-17T17:39:21.038Z,3.79
2018-12-17T17:41:25.512Z,3.77
2018-12-17T17:43:30.094Z,3.68
2018-12-17T17:45:38.644Z,3.67
2018-12-17T17:47:41.770Z,3.71
2018-12-17T17:49:51.203Z,3.70
2018-12-17T17:51:57.615Z,3.71
2018-12-17T17:54:03.260Z,3.69
2018-12-17T17:56:12.379Z,3.70
2018-12-17T17:58:13.864Z,3.78
2018-12-17T18:00:16.891Z,3.83
2018-12-17T18:04:56.837Z,3.68
2018-12-17T18:06:58.332Z,3.65
2018-12-17T18:08:59.732Z,3.76
2018-12-17T18:11:01.235Z,3.75
2018-12-17T18:15:41.978Z,3.69
2018-12-17T18:17:43.606Z,3.63
2018-12-17T18:19:45.079Z,3.70
2018-12-17T18:21:46.598Z,3.69
2018-12-17T18:23:48.078Z,3.74
2018-12-17T18:25:49.582Z,3.71
2018-12-17T18:27:51.021Z,3.75
2018-12-17T18:29:52.558Z,3.71
2018-12-17T18:31:55.342Z,3.74
2018-12-17T18:36:57.331Z,3.74
2018-12-17T18:39:15.732Z,3.72
2018-12-17T18:41:23.483Z,3.74
2018-12-17T18:43:24.888Z,3.64
2018-12-17T18:45:39.819Z,3.77
2018-12-17T18:47:41.239Z,3.76
2018-12-17T18:49:49.640Z,3.79
2018-12-17T18:51:51.062Z,3.81
2018-12-17T18:54:01.067Z,3.97
2018-12-17T18:56:09.463Z,3.88
2018-12-17T18:58:14.740Z,3.90
2018-12-17T19:00:16.192Z,3.95
2018-12-17T19:02:24.275Z,3.86
2018-12-17T19:04:29.108Z,4.07
2018-12-17T19:06:36.697Z,3.95
2018-12-17T19:08:44.629Z,3.70
2018-12-17T19:10:59.760Z,3.68
2018-12-17T19:13:09.282Z,3.76
2018-12-17T19:15:22.386Z,3.81
2018-12-17T19:17:33.867Z,3.78
2018-12-17T19:19:41.302Z,3.83
2018-12-17T19:21:49.134Z,3.69
2018-12-17T19:23:56.875Z,3.71
2018-12-17T19:26:04.667Z,3.75
2018-12-17T19:28:09.457Z,3.80
2018-12-17T19:30:17.401Z,3.76
2018-12-17T19:32:25.278Z,3.75
2018-12-17T19:34:29.960Z,3.80
2018-12-17T19:36:41.957Z,3.68
2018-12-17T19:38:46.920Z,3.71
2018-12-17T19:40:51.755Z,3.71
2018-12-17T19:43:06.131Z,3.72
2018-12-17T19:45:17.650Z,3.68
2018-12-17T19:47:25.171Z,3.67
2018-12-17T19:49:30.212Z,3.70
2018-12-17T19:51:33.126Z,3.71
2018-12-17T19:53:40.785Z,3.67
2018-12-17T19:55:48.680Z,3.65
2018-12-17T19:57:56.886Z,3.63
2018-12-17T20:00:07.055Z,3.68
2018-12-17T20:02:15.060Z,3.62
2018-12-17T20:04:23.086Z,3.58
2018-12-17T20:06:31.371Z,3.63
2018-12-17T20:08:39.169Z,3.64
2018-12-17T20:10:47.162Z,3.57
2018-12-17T20:12:54.813Z,3.64
2018-12-17T20:15:09.831Z,3.74
2018-12-17T20:17:17.897Z,3.71
2018-12-17T20:19:25.532Z,3.64
2018-12-17T20:21:33.179Z,3.63
2018-12-17T20:23:38.416Z,3.63
2018-12-17T20:25:46.642Z,3.60
2018-12-17T20:27:51.375Z,3.55
2018-12-17T20:29:59.429Z,3.53
2018-12-17T20:32:07.219Z,3.54
2018-12-17T20:34:15.243Z,3.67
2018-12-17T20:36:30.046Z,3.66
2018-12-17T20:38:37.899Z,3.60
2018-12-17T20:40:45.609Z,3.60
2018-12-17T20:42:57.283Z,3.62
2018-12-17T20:45:06.150Z,3.58
2018-12-17T20:47:18.199Z,3.65
2018-12-17T20:49:26.429Z,3.64
2018-12-17T20:51:34.381Z,3.62
2018-12-17T20:53:44.251Z,3.67
2018-12-17T20:55:51.857Z,3.67
2018-12-17T20:58:06.582Z,3.68
2018-12-17T21:00:14.430Z,3.71
2018-12-17T21:02:22.211Z,3.73
2018-12-17T21:04:31.106Z,3.69
2018-12-17T21:06:36.448Z,3.69
2018-12-17T21:08:51.699Z,3.61
2018-12-17T21:10:59.359Z,3.68
2018-12-17T21:13:07.264Z,3.89
2018-12-17T21:15:15.135Z,3.93
2018-12-17T21:17:27.163Z,3.84
2018-12-17T21:19:34.841Z,3.71
2018-12-17T21:21:42.533Z,3.79
2018-12-17T21:23:51.192Z,3.81
2018-12-17T21:25:58.946Z,3.82
2018-12-17T21:28:01.955Z,3.74
2018-12-17T21:30:13.339Z,3.63
2018-12-17T21:32:21.239Z,3.64
2018-12-17T21:34:33.712Z,3.69
2018-12-17T21:36:46.026Z,3.64
2018-12-17T21:38:53.553Z,3.61
2018-12-17T21:41:01.334Z,3.66
2018-12-17T21:43:11.189Z,3.66
2018-12-17T21:45:18.851Z,3.68
2018-12-17T21:47:26.904Z,3.75
2018-12-17T21:49:34.359Z,3.78
2018-12-17T21:51:42.384Z,3.63
2018-12-17T21:53:50.412Z,3.60
2018-12-17T21:55:58.373Z,3.59
2018-12-17T21:58:13.274Z,3.57
2018-12-17T22:00:21.046Z,3.57
2018-12-17T22:02:28.684Z,3.53
2018-12-17T22:04:36.540Z,3.34
2018-12-17T22:06:43.999Z,3.59
2018-12-17T22:08:51.574Z,3.56
2018-12-17T22:10:59.409Z,3.54
2018-12-17T22:13:07.310Z,3.57
2018-12-17T22:15:19.096Z,3.54
2018-12-17T22:17:27.278Z,3.56
2018-12-17T22:19:34.829Z,3.54
2018-12-17T22:21:42.658Z,3.52
2018-12-17T22:23:57.408Z,3.55
2018-12-17T22:26:05.209Z,3.58
2018-12-17T22:28:19.943Z,3.54
2018-12-17T22:30:28.089Z,3.62
2018-12-17T22:32:35.683Z,3.62
2018-12-17T22:34:43.514Z,3.64
2018-12-17T22:36:55.163Z,3.63
2018-12-17T22:39:04.983Z,3.61
2018-12-17T22:41:12.756Z,3.61
2018-12-17T22:43:20.371Z,3.63
2018-12-17T22:45:29.054Z,3.62
2018-12-17T22:47:43.866Z,3.66
2018-12-17T22:49:48.796Z,3.68
2018-12-17T22:51:57.467Z,3.68
2018-12-17T22:54:02.625Z,3.69
2018-12-17T22:56:07.349Z,3.69
2018-12-17T22:58:17.311Z,3.54
2018-12-17T23:00:28.905Z,3.70
2018-12-17T23:02:36.477Z,3.72
2018-12-17T23:04:51.381Z,3.76
2018-12-17T23:06:59.268Z,3.79
2018-12-17T23:09:07.582Z,3.84
2018-12-17T23:11:28.608Z,3.79
2018-12-17T23:13:48.979Z,3.74
2018-12-17T23:16:09.543Z,3.82
2018-12-17T23:18:18.991Z,3.84
2018-12-17T23:20:24.246Z,3.81
2018-12-17T23:22:28.919Z,3.81
2018-12-17T23:24:37.516Z,3.84
2018-12-17T23:26:45.728Z,3.84
2018-12-17T23:28:54.777Z,3.89
2018-12-17T23:31:03.209Z,4.03
2018-12-17T23:33:07.891Z,3.98
2018-12-17T23:35:15.642Z,3.98
2018-12-17T23:37:27.638Z,4.05
2018-12-17T23:39:39.426Z,4.00
2018-12-17T23:41:47.145Z,3.94
2018-12-17T23:43:52.218Z,3.95
2018-12-17T23:45:59.837Z,4.04
2018-12-17T23:48:07.257Z,4.01
2018-12-17T23:50:15.098Z,4.05
2018-12-17T23:52:24.581Z,4.01
2018-12-17T23:54:32.111Z,4.03
2018-12-17T23:56:36.803Z,4.01
2018-12-17T23:58:44.977Z,3.99
